sensor_id;sensor_type;location;lat;lon;timestamp;pressure;altitude;pressure_sealevel;temperature
68027;BMP180;54819;48.030;14.710;2023-08-08T00:00:29;97764.80;;;13.74
68027;BMP180;54819;48.030;14.710;2023-08-08T00:02:55;97760.40;;;13.70
68027;BMP180;54819;48.030;14.710;2023-08-08T00:05:22;97752.00;;;13.70
68027;BMP180;54819;48.030;14.710;2023-08-08T00:07:49;97752.00;;;13.70
68027;BMP180;54819;48.030;14.710;2023-08-08T00:10:16;97750.40;;;13.70
68027;BMP180;54819;48.030;14.710;2023-08-08T00:12:43;97747.20;;;13.70
68027;BMP180;54819;48.030;14.710;2023-08-08T00:15:10;97748.80;;;13.70
68027;BMP180;54819;48.030;14.710;2023-08-08T00:17:36;97752.80;;;13.70
68027;BMP180;54819;48.030;14.710;2023-08-08T00:20:04;97748.40;;;13.70
68027;BMP180;54819;48.030;14.710;2023-08-08T00:22:31;97750.40;;;13.70
68027;BMP180;54819;48.030;14.710;2023-08-08T00:24:57;97743.60;;;13.64
68027;BMP180;54819;48.030;14.710;2023-08-08T00:27:24;97738.80;;;13.60
68027;BMP180;54819;48.030;14.710;2023-08-08T00:29:51;97745.20;;;13.60
68027;BMP180;54819;48.030;14.710;2023-08-08T00:32:20;97743.40;;;13.60
68027;BMP180;54819;48.030;14.710;2023-08-08T00:34:47;97735.60;;;13.60
68027;BMP180;54819;48.030;14.710;2023-08-08T00:37:14;97734.00;;;13.50
68027;BMP180;54819;48.030;14.710;2023-08-08T00:39:41;97729.40;;;13.50
68027;BMP180;54819;48.030;14.710;2023-08-08T00:42:12;97729.40;;;13.50
68027;BMP180;54819;48.030;14.710;2023-08-08T00:44:40;97726.00;;;13.50
68027;BMP180;54819;48.030;14.710;2023-08-08T00:47:10;97723.60;;;13.50
68027;BMP180;54819;48.030;14.710;2023-08-08T00:49:37;97722.40;;;13.40
68027;BMP180;54819;48.030;14.710;2023-08-08T00:52:06;97727.80;;;13.40
68027;BMP180;54819;48.030;14.710;2023-08-08T00:54:33;97732.80;;;13.38
68027;BMP180;54819;48.030;14.710;2023-08-08T00:57:01;97729.40;;;13.30
68027;BMP180;54819;48.030;14.710;2023-08-08T00:59:27;97726.60;;;13.30
68027;BMP180;54819;48.030;14.710;2023-08-08T01:01:54;97727.60;;;13.30
68027;BMP180;54819;48.030;14.710;2023-08-08T01:04:25;97723.40;;;13.22
68027;BMP180;54819;48.030;14.710;2023-08-08T01:09:54;97726.40;;;13.20
68027;BMP180;54819;48.030;14.710;2023-08-08T01:12:21;97724.80;;;13.20
68027;BMP180;54819;48.030;14.710;2023-08-08T01:14:52;97723.20;;;13.20
68027;BMP180;54819;48.030;14.710;2023-08-08T01:17:21;97721.40;;;13.20
68027;BMP180;54819;48.030;14.710;2023-08-08T01:19:48;97722.60;;;13.20
68027;BMP180;54819;48.030;14.710;2023-08-08T01:22:25;97722.60;;;13.20
68027;BMP180;54819;48.030;14.710;2023-08-08T01:24:54;97728.20;;;13.26
68027;BMP180;54819;48.030;14.710;2023-08-08T01:27:22;97725.40;;;13.30
68027;BMP180;54819;48.030;14.710;2023-08-08T01:29:49;97723.00;;;13.30
68027;BMP180;54819;48.030;14.710;2023-08-08T01:32:15;97723.20;;;13.30
68027;BMP180;54819;48.030;14.710;2023-08-08T01:34:42;97722.20;;;13.30
68027;BMP180;54819;48.030;14.710;2023-08-08T01:37:27;97725.80;;;13.30
68027;BMP180;54819;48.030;14.710;2023-08-08T01:39:59;97723.20;;;13.36
68027;BMP180;54819;48.030;14.710;2023-08-08T01:42:27;97726.40;;;13.40
68027;BMP180;54819;48.030;14.710;2023-08-08T01:44:55;97725.80;;;13.40
68027;BMP180;54819;48.030;14.710;2023-08-08T01:47:23;97723.80;;;13.40
68027;BMP180;54819;48.030;14.710;2023-08-08T01:49:50;97722.00;;;13.44
68027;BMP180;54819;48.030;14.710;2023-08-08T01:52:16;97717.80;;;13.50
68027;BMP180;54819;48.030;14.710;2023-08-08T01:54:43;97719.40;;;13.50
68027;BMP180;54819;48.030;14.710;2023-08-08T01:57:10;97716.20;;;13.50
68027;BMP180;54819;48.030;14.710;2023-08-08T01:59:38;97722.40;;;13.48
68027;BMP180;54819;48.030;14.710;2023-08-08T02:02:05;97725.20;;;13.50
68027;BMP180;54819;48.030;14.710;2023-08-08T02:04:33;97726.60;;;13.50
68027;BMP180;54819;48.030;14.710;2023-08-08T02:07:00;97729.00;;;13.50
68027;BMP180;54819;48.030;14.710;2023-08-08T02:09:27;97731.80;;;13.50
68027;BMP180;54819;48.030;14.710;2023-08-08T02:11:54;97730.40;;;13.50
68027;BMP180;54819;48.030;14.710;2023-08-08T02:14:21;97727.20;;;13.50
68027;BMP180;54819;48.030;14.710;2023-08-08T02:16:47;97732.20;;;13.50
68027;BMP180;54819;48.030;14.710;2023-08-08T02:19:14;97732.00;;;13.50
68027;BMP180;54819;48.030;14.710;2023-08-08T02:21:41;97733.40;;;13.48
68027;BMP180;54819;48.030;14.710;2023-08-08T02:24:09;97727.60;;;13.40
68027;BMP180;54819;48.030;14.710;2023-08-08T02:26:36;97734.80;;;13.40
68027;BMP180;54819;48.030;14.710;2023-08-08T02:29:07;97731.60;;;13.30
68027;BMP180;54819;48.030;14.710;2023-08-08T02:31:35;97731.80;;;13.30
68027;BMP180;54819;48.030;14.710;2023-08-08T02:34:01;97727.40;;;13.22
68027;BMP180;54819;48.030;14.710;2023-08-08T02:36:28;97726.00;;;13.20
68027;BMP180;54819;48.030;14.710;2023-08-08T02:38:55;97730.40;;;13.20
68027;BMP180;54819;48.030;14.710;2023-08-08T02:41:22;97731.60;;;13.20
68027;BMP180;54819;48.030;14.710;2023-08-08T02:43:49;97729.40;;;13.20
68027;BMP180;54819;48.030;14.710;2023-08-08T02:46:15;97728.80;;;13.20
68027;BMP180;54819;48.030;14.710;2023-08-08T02:48:43;97729.60;;;13.16
68027;BMP180;54819;48.030;14.710;2023-08-08T02:51:09;97726.80;;;13.18
68027;BMP180;54819;48.030;14.710;2023-08-08T02:53:37;97725.00;;;13.20
68027;BMP180;54819;48.030;14.710;2023-08-08T02:56:04;97727.60;;;13.20
68027;BMP180;54819;48.030;14.710;2023-08-08T02:58:32;97720.80;;;13.20
68027;BMP180;54819;48.030;14.710;2023-08-08T03:00:59;97725.60;;;13.20
68027;BMP180;54819;48.030;14.710;2023-08-08T03:03:26;97725.20;;;13.20
68027;BMP180;54819;48.030;14.710;2023-08-08T03:05:54;97726.40;;;13.20
68027;BMP180;54819;48.030;14.710;2023-08-08T03:08:20;97721.80;;;13.20
68027;BMP180;54819;48.030;14.710;2023-08-08T03:10:47;97723.80;;;13.20
68027;BMP180;54819;48.030;14.710;2023-08-08T03:13:14;97729.40;;;13.20
68027;BMP180;54819;48.030;14.710;2023-08-08T03:15:41;97727.20;;;13.20
68027;BMP180;54819;48.030;14.710;2023-08-08T03:18:08;97729.60;;;13.20
68027;BMP180;54819;48.030;14.710;2023-08-08T03:20:35;97730.40;;;13.20
68027;BMP180;54819;48.030;14.710;2023-08-08T03:23:02;97736.80;;;13.28
68027;BMP180;54819;48.030;14.710;2023-08-08T03:25:29;97731.00;;;13.30
68027;BMP180;54819;48.030;14.710;2023-08-08T03:27:56;97728.60;;;13.30
68027;BMP180;54819;48.030;14.710;2023-08-08T03:30:23;97724.40;;;13.30
68027;BMP180;54819;48.030;14.710;2023-08-08T03:32:50;97725.60;;;13.30
68027;BMP180;54819;48.030;14.710;2023-08-08T03:35:17;97727.00;;;13.30
68027;BMP180;54819;48.030;14.710;2023-08-08T03:37:44;97728.80;;;13.34
68027;BMP180;54819;48.030;14.710;2023-08-08T03:40:11;97724.20;;;13.36
68027;BMP180;54819;48.030;14.710;2023-08-08T03:42:40;97720.00;;;13.40
68027;BMP180;54819;48.030;14.710;2023-08-08T03:45:07;97724.40;;;13.40
68027;BMP180;54819;48.030;14.710;2023-08-08T03:47:34;97721.40;;;13.40
68027;BMP180;54819;48.030;14.710;2023-08-08T03:50:02;97723.60;;;13.40
68027;BMP180;54819;48.030;14.710;2023-08-08T03:52:29;97724.20;;;13.40
68027;BMP180;54819;48.030;14.710;2023-08-08T03:54:56;97726.00;;;13.40
68027;BMP180;54819;48.030;14.710;2023-08-08T03:57:23;97725.40;;;13.42
68027;BMP180;54819;48.030;14.710;2023-08-08T03:59:50;97729.00;;;13.50
68027;BMP180;54819;48.030;14.710;2023-08-08T04:02:17;97727.00;;;13.50
68027;BMP180;54819;48.030;14.710;2023-08-08T04:04:44;97726.20;;;13.50
68027;BMP180;54819;48.030;14.710;2023-08-08T04:07:12;97725.60;;;13.44
68027;BMP180;54819;48.030;14.710;2023-08-08T04:09:38;97735.60;;;13.40
68027;BMP180;54819;48.030;14.710;2023-08-08T04:12:05;97739.00;;;13.40
68027;BMP180;54819;48.030;14.710;2023-08-08T04:14:32;97737.00;;;13.32
68027;BMP180;54819;48.030;14.710;2023-08-08T04:16:59;97735.40;;;13.30
68027;BMP180;54819;48.030;14.710;2023-08-08T04:19:26;97738.60;;;13.30
68027;BMP180;54819;48.030;14.710;2023-08-08T04:21:52;97731.60;;;13.30
68027;BMP180;54819;48.030;14.710;2023-08-08T04:24:19;97733.60;;;13.30
68027;BMP180;54819;48.030;14.710;2023-08-08T04:26:46;97729.40;;;13.30
68027;BMP180;54819;48.030;14.710;2023-08-08T04:29:12;97735.80;;;13.30
68027;BMP180;54819;48.030;14.710;2023-08-08T04:31:40;97730.20;;;13.30
68027;BMP180;54819;48.030;14.710;2023-08-08T04:34:06;97738.40;;;13.30
68027;BMP180;54819;48.030;14.710;2023-08-08T04:36:33;97735.60;;;13.30
68027;BMP180;54819;48.030;14.710;2023-08-08T04:39:00;97730.60;;;13.30
68027;BMP180;54819;48.030;14.710;2023-08-08T04:41:27;97727.80;;;13.40
68027;BMP180;54819;48.030;14.710;2023-08-08T04:43:53;97729.60;;;13.40
68027;BMP180;54819;48.030;14.710;2023-08-08T04:46:20;97731.00;;;13.50
68027;BMP180;54819;48.030;14.710;2023-08-08T04:48:47;97727.80;;;13.50
68027;BMP180;54819;48.030;14.710;2023-08-08T04:51:14;97726.60;;;13.60
68027;BMP180;54819;48.030;14.710;2023-08-08T04:53:41;97728.40;;;13.70
68027;BMP180;54819;48.030;14.710;2023-08-08T04:56:07;97725.80;;;13.70
68027;BMP180;54819;48.030;14.710;2023-08-08T04:58:34;97721.80;;;13.80
68027;BMP180;54819;48.030;14.710;2023-08-08T05:01:01;97722.40;;;13.90
68027;BMP180;54819;48.030;14.710;2023-08-08T05:03:27;97730.00;;;13.90
68027;BMP180;54819;48.030;14.710;2023-08-08T05:05:54;97727.00;;;13.90
68027;BMP180;54819;48.030;14.710;2023-08-08T05:08:21;97731.80;;;13.90
68027;BMP180;54819;48.030;14.710;2023-08-08T05:10:48;97732.60;;;13.90
68027;BMP180;54819;48.030;14.710;2023-08-08T05:13:15;97733.40;;;13.90
68027;BMP180;54819;48.030;14.710;2023-08-08T05:15:41;97736.60;;;14.00
68027;BMP180;54819;48.030;14.710;2023-08-08T05:18:08;97734.40;;;14.00
68027;BMP180;54819;48.030;14.710;2023-08-08T05:20:35;97738.40;;;14.10
68027;BMP180;54819;48.030;14.710;2023-08-08T05:23:02;97740.40;;;14.28
68027;BMP180;54819;48.030;14.710;2023-08-08T05:25:28;97738.60;;;14.38
68027;BMP180;54819;48.030;14.710;2023-08-08T05:27:55;97730.00;;;14.50
68027;BMP180;54819;48.030;14.710;2023-08-08T05:30:22;97737.80;;;14.60
68027;BMP180;54819;48.030;14.710;2023-08-08T05:32:49;97736.40;;;14.70
68027;BMP180;54819;48.030;14.710;2023-08-08T05:35:15;97733.60;;;14.80
68027;BMP180;54819;48.030;14.710;2023-08-08T05:37:42;97724.00;;;15.00
68027;BMP180;54819;48.030;14.710;2023-08-08T05:40:09;97724.60;;;15.20
68027;BMP180;54819;48.030;14.710;2023-08-08T05:42:38;97723.60;;;15.32
68027;BMP180;54819;48.030;14.710;2023-08-08T05:45:05;97720.00;;;15.50
68027;BMP180;54819;48.030;14.710;2023-08-08T05:47:32;97725.00;;;15.60
68027;BMP180;54819;48.030;14.710;2023-08-08T05:50:00;97720.80;;;15.74
68027;BMP180;54819;48.030;14.710;2023-08-08T05:52:27;97724.60;;;15.90
68027;BMP180;54819;48.030;14.710;2023-08-08T05:54:53;97725.00;;;16.00
68027;BMP180;54819;48.030;14.710;2023-08-08T05:57:20;97721.80;;;16.10
68027;BMP180;54819;48.030;14.710;2023-08-08T05:59:48;97718.80;;;16.20
68027;BMP180;54819;48.030;14.710;2023-08-08T06:02:15;97728.80;;;16.24
68027;BMP180;54819;48.030;14.710;2023-08-08T06:04:42;97737.20;;;16.26
68027;BMP180;54819;48.030;14.710;2023-08-08T06:07:09;97742.40;;;16.20
68027;BMP180;54819;48.030;14.710;2023-08-08T06:09:36;97741.20;;;16.10
68027;BMP180;54819;48.030;14.710;2023-08-08T06:12:04;97753.40;;;16.10
68027;BMP180;54819;48.030;14.710;2023-08-08T06:14:31;97754.00;;;16.02
68027;BMP180;54819;48.030;14.710;2023-08-08T06:16:58;97751.80;;;16.10
68027;BMP180;54819;48.030;14.710;2023-08-08T06:19:25;97752.60;;;16.20
68027;BMP180;54819;48.030;14.710;2023-08-08T06:21:52;97756.20;;;16.32
68027;BMP180;54819;48.030;14.710;2023-08-08T06:24:18;97751.80;;;16.50
68027;BMP180;54819;48.030;14.710;2023-08-08T06:26:45;97749.80;;;16.70
68027;BMP180;54819;48.030;14.710;2023-08-08T06:29:12;97751.80;;;16.90
68027;BMP180;54819;48.030;14.710;2023-08-08T06:31:40;97753.20;;;17.00
68027;BMP180;54819;48.030;14.710;2023-08-08T06:34:08;97761.40;;;17.00
68027;BMP180;54819;48.030;14.710;2023-08-08T06:36:35;97765.20;;;16.86
68027;BMP180;54819;48.030;14.710;2023-08-08T06:39:02;97768.20;;;16.80
68027;BMP180;54819;48.030;14.710;2023-08-08T06:41:29;97758.80;;;16.80
68027;BMP180;54819;48.030;14.710;2023-08-08T06:43:56;97759.40;;;16.80
68027;BMP180;54819;48.030;14.710;2023-08-08T06:46:23;97762.00;;;16.80
68027;BMP180;54819;48.030;14.710;2023-08-08T06:48:51;97755.80;;;17.00
68027;BMP180;54819;48.030;14.710;2023-08-08T06:51:24;97756.20;;;17.20
68027;BMP180;54819;48.030;14.710;2023-08-08T06:53:52;97752.00;;;17.42
68027;BMP180;54819;48.030;14.710;2023-08-08T06:56:19;97749.20;;;17.70
68027;BMP180;54819;48.030;14.710;2023-08-08T06:58:45;97747.80;;;17.90
68027;BMP180;54819;48.030;14.710;2023-08-08T07:01:12;97744.60;;;18.00
68027;BMP180;54819;48.030;14.710;2023-08-08T07:03:40;97744.80;;;18.10
68027;BMP180;54819;48.030;14.710;2023-08-08T07:06:07;97742.20;;;18.28
68027;BMP180;54819;48.030;14.710;2023-08-08T07:08:34;97741.00;;;18.40
68027;BMP180;54819;48.030;14.710;2023-08-08T07:11:01;97740.20;;;18.60
68027;BMP180;54819;48.030;14.710;2023-08-08T07:13:28;97738.80;;;18.72
68027;BMP180;54819;48.030;14.710;2023-08-08T07:15:54;97733.00;;;18.92
68027;BMP180;54819;48.030;14.710;2023-08-08T07:18:21;97728.60;;;19.18
68027;BMP180;54819;48.030;14.710;2023-08-08T07:20:48;97732.80;;;19.36
68027;BMP180;54819;48.030;14.710;2023-08-08T07:23:16;97727.80;;;19.60
68027;BMP180;54819;48.030;14.710;2023-08-08T07:25:43;97725.60;;;19.80
68027;BMP180;54819;48.030;14.710;2023-08-08T07:28:11;97714.80;;;19.90
68027;BMP180;54819;48.030;14.710;2023-08-08T07:30:38;97716.20;;;20.00
68027;BMP180;54819;48.030;14.710;2023-08-08T07:33:05;97713.20;;;20.02
68027;BMP180;54819;48.030;14.710;2023-08-08T07:35:33;97716.80;;;20.10
68027;BMP180;54819;48.030;14.710;2023-08-08T07:38:00;97715.80;;;20.24
68027;BMP180;54819;48.030;14.710;2023-08-08T07:40:27;97711.00;;;20.62
68027;BMP180;54819;48.030;14.710;2023-08-08T07:42:54;97710.60;;;21.00
68027;BMP180;54819;48.030;14.710;2023-08-08T07:45:20;97715.00;;;21.16
68027;BMP180;54819;48.030;14.710;2023-08-08T07:47:47;97706.60;;;21.20
68027;BMP180;54819;48.030;14.710;2023-08-08T07:50:14;97701.60;;;21.24
68027;BMP180;54819;48.030;14.710;2023-08-08T07:52:41;97709.40;;;21.30
68027;BMP180;54819;48.030;14.710;2023-08-08T07:55:08;97708.00;;;21.28
68027;BMP180;54819;48.030;14.710;2023-08-08T07:57:35;97706.20;;;21.10
68027;BMP180;54819;48.030;14.710;2023-08-08T08:00:03;97702.20;;;20.92
68027;BMP180;54819;48.030;14.710;2023-08-08T08:02:43;97702.60;;;20.80
68027;BMP180;54819;48.030;14.710;2023-08-08T08:05:11;97699.20;;;20.70
68027;BMP180;54819;48.030;14.710;2023-08-08T08:07:38;97697.80;;;20.60
68027;BMP180;54819;48.030;14.710;2023-08-08T08:10:08;97700.20;;;20.50
68027;BMP180;54819;48.030;14.710;2023-08-08T08:12:35;97699.60;;;20.40
68027;BMP180;54819;48.030;14.710;2023-08-08T08:15:03;97699.20;;;20.40
68027;BMP180;54819;48.030;14.710;2023-08-08T08:17:31;97702.40;;;20.32
68027;BMP180;54819;48.030;14.710;2023-08-08T08:19:58;97697.20;;;20.34
68027;BMP180;54819;48.030;14.710;2023-08-08T08:22:25;97699.00;;;20.50
68027;BMP180;54819;48.030;14.710;2023-08-08T08:24:51;97702.40;;;20.50
68027;BMP180;54819;48.030;14.710;2023-08-08T08:27:18;97699.40;;;20.48
68027;BMP180;54819;48.030;14.710;2023-08-08T08:29:45;97696.20;;;20.40
68027;BMP180;54819;48.030;14.710;2023-08-08T08:32:12;97697.40;;;20.36
68027;BMP180;54819;48.030;14.710;2023-08-08T08:34:39;97689.80;;;20.20
68027;BMP180;54819;48.030;14.710;2023-08-08T08:37:05;97689.20;;;20.30
68027;BMP180;54819;48.030;14.710;2023-08-08T08:39:32;97692.20;;;20.30
68027;BMP180;54819;48.030;14.710;2023-08-08T08:42:00;97681.60;;;20.20
68027;BMP180;54819;48.030;14.710;2023-08-08T08:44:32;97679.60;;;20.20
68027;BMP180;54819;48.030;14.710;2023-08-08T08:47:03;97677.60;;;20.20
68027;BMP180;54819;48.030;14.710;2023-08-08T08:49:31;97673.00;;;20.20
68027;BMP180;54819;48.030;14.710;2023-08-08T08:52:01;97674.60;;;20.30
68027;BMP180;54819;48.030;14.710;2023-08-08T08:54:29;97671.00;;;20.50
68027;BMP180;54819;48.030;14.710;2023-08-08T08:56:59;97665.60;;;20.60
68027;BMP180;54819;48.030;14.710;2023-08-08T08:59:26;97664.40;;;20.70
68027;BMP180;54819;48.030;14.710;2023-08-08T09:01:53;97663.40;;;20.70
68027;BMP180;54819;48.030;14.710;2023-08-08T09:04:21;97665.00;;;20.82
68027;BMP180;54819;48.030;14.710;2023-08-08T09:06:49;97661.20;;;21.00
68027;BMP180;54819;48.030;14.710;2023-08-08T09:09:17;97657.40;;;21.20
68027;BMP180;54819;48.030;14.710;2023-08-08T09:11:46;97654.20;;;21.40
68027;BMP180;54819;48.030;14.710;2023-08-08T09:14:18;97655.80;;;21.60
68027;BMP180;54819;48.030;14.710;2023-08-08T09:16:47;97659.60;;;21.70
68027;BMP180;54819;48.030;14.710;2023-08-08T09:19:15;97654.40;;;21.80
68027;BMP180;54819;48.030;14.710;2023-08-08T09:21:42;97662.00;;;21.80
68027;BMP180;54819;48.030;14.710;2023-08-08T09:24:09;97663.40;;;21.80
68027;BMP180;54819;48.030;14.710;2023-08-08T09:26:36;97655.20;;;21.84
68027;BMP180;54819;48.030;14.710;2023-08-08T09:29:03;97660.60;;;21.90
68027;BMP180;54819;48.030;14.710;2023-08-08T09:31:30;97652.40;;;21.90
68027;BMP180;54819;48.030;14.710;2023-08-08T09:34:01;97656.60;;;21.98
68027;BMP180;54819;48.030;14.710;2023-08-08T09:36:28;97652.20;;;22.00
68027;BMP180;54819;48.030;14.710;2023-08-08T09:38:59;97646.80;;;22.10
68027;BMP180;54819;48.030;14.710;2023-08-08T09:41:26;97645.00;;;22.34
68027;BMP180;54819;48.030;14.710;2023-08-08T09:43:53;97653.80;;;22.50
68027;BMP180;54819;48.030;14.710;2023-08-08T09:46:21;97652.00;;;22.48
68027;BMP180;54819;48.030;14.710;2023-08-08T09:48:49;97650.80;;;22.50
68027;BMP180;54819;48.030;14.710;2023-08-08T09:51:16;97646.20;;;22.70
68027;BMP180;54819;48.030;14.710;2023-08-08T09:53:43;97647.00;;;22.80
68027;BMP180;54819;48.030;14.710;2023-08-08T09:56:12;97644.80;;;22.90
68027;BMP180;54819;48.030;14.710;2023-08-08T09:58:41;97641.80;;;23.00
68027;BMP180;54819;48.030;14.710;2023-08-08T10:01:10;97643.20;;;22.90
68027;BMP180;54819;48.030;14.710;2023-08-08T10:03:37;97645.20;;;22.90
68027;BMP180;54819;48.030;14.710;2023-08-08T10:06:04;97638.00;;;22.90
68027;BMP180;54819;48.030;14.710;2023-08-08T10:08:32;97639.60;;;22.80
68027;BMP180;54819;48.030;14.710;2023-08-08T10:10:59;97640.20;;;22.70
68027;BMP180;54819;48.030;14.710;2023-08-08T10:13:27;97641.40;;;22.74
68027;BMP180;54819;48.030;14.710;2023-08-08T10:15:54;97641.00;;;22.72
68027;BMP180;54819;48.030;14.710;2023-08-08T10:18:22;97642.40;;;22.70
68027;BMP180;54819;48.030;14.710;2023-08-08T10:20:49;97644.40;;;22.70
68027;BMP180;54819;48.030;14.710;2023-08-08T10:23:17;97635.00;;;22.70
68027;BMP180;54819;48.030;14.710;2023-08-08T10:25:46;97636.00;;;22.60
68027;BMP180;54819;48.030;14.710;2023-08-08T10:28:14;97643.20;;;22.50
68027;BMP180;54819;48.030;14.710;2023-08-08T10:30:56;97637.40;;;22.40
68027;BMP180;54819;48.030;14.710;2023-08-08T10:33:38;97638.40;;;22.40
68027;BMP180;54819;48.030;14.710;2023-08-08T10:36:06;97639.20;;;22.40
68027;BMP180;54819;48.030;14.710;2023-08-08T10:38:47;97635.20;;;22.40
68027;BMP180;54819;48.030;14.710;2023-08-08T10:41:21;97624.00;;;22.30
68027;BMP180;54819;48.030;14.710;2023-08-08T10:43:53;97626.60;;;22.30
68027;BMP180;54819;48.030;14.710;2023-08-08T10:46:28;97617.00;;;22.20
68027;BMP180;54819;48.030;14.710;2023-08-08T10:49:04;97620.00;;;22.10
68027;BMP180;54819;48.030;14.710;2023-08-08T10:51:35;97614.60;;;22.10
68027;BMP180;54819;48.030;14.710;2023-08-08T10:54:06;97618.40;;;22.10
68027;BMP180;54819;48.030;14.710;2023-08-08T10:56:35;97616.20;;;22.20
68027;BMP180;54819;48.030;14.710;2023-08-08T10:59:14;97611.60;;;22.42
68027;BMP180;54819;48.030;14.710;2023-08-08T11:01:42;97603.80;;;22.70
68027;BMP180;54819;48.030;14.710;2023-08-08T11:04:10;97603.20;;;22.72
68027;BMP180;54819;48.030;14.710;2023-08-08T11:06:38;97603.00;;;22.80
68027;BMP180;54819;48.030;14.710;2023-08-08T11:09:06;97604.60;;;22.96
68027;BMP180;54819;48.030;14.710;2023-08-08T11:11:38;97600.60;;;23.00
68027;BMP180;54819;48.030;14.710;2023-08-08T11:16:38;97595.40;;;23.20
68027;BMP180;54819;48.030;14.710;2023-08-08T11:19:05;97590.80;;;23.30
68027;BMP180;54819;48.030;14.710;2023-08-08T11:21:43;97587.60;;;23.20
68027;BMP180;54819;48.030;14.710;2023-08-08T11:24:12;97587.80;;;23.30
68027;BMP180;54819;48.030;14.710;2023-08-08T11:26:40;97583.60;;;23.30
68027;BMP180;54819;48.030;14.710;2023-08-08T11:29:07;97580.40;;;23.30
68027;BMP180;54819;48.030;14.710;2023-08-08T11:31:35;97578.00;;;23.40
68027;BMP180;54819;48.030;14.710;2023-08-08T11:34:03;97578.20;;;23.50
68027;BMP180;54819;48.030;14.710;2023-08-08T11:36:35;97575.80;;;23.54
68027;BMP180;54819;48.030;14.710;2023-08-08T11:39:03;97575.00;;;23.60
68027;BMP180;54819;48.030;14.710;2023-08-08T11:41:35;97574.80;;;23.70
68027;BMP180;54819;48.030;14.710;2023-08-08T11:44:03;97577.60;;;23.70
68027;BMP180;54819;48.030;14.710;2023-08-08T11:46:31;97572.60;;;23.80
68027;BMP180;54819;48.030;14.710;2023-08-08T11:49:04;97572.40;;;23.98
68027;BMP180;54819;48.030;14.710;2023-08-08T11:51:34;97569.60;;;24.14
68027;BMP180;54819;48.030;14.710;2023-08-08T11:54:03;97564.20;;;24.32
68027;BMP180;54819;48.030;14.710;2023-08-08T11:56:33;97569.20;;;24.50
68027;BMP180;54819;48.030;14.710;2023-08-08T11:59:01;97565.40;;;24.60
68027;BMP180;54819;48.030;14.710;2023-08-08T12:01:31;97560.40;;;24.62
68027;BMP180;54819;48.030;14.710;2023-08-08T12:03:58;97564.40;;;24.70
68027;BMP180;54819;48.030;14.710;2023-08-08T12:06:30;97560.00;;;24.70
68027;BMP180;54819;48.030;14.710;2023-08-08T12:08:57;97561.00;;;24.70
68027;BMP180;54819;48.030;14.710;2023-08-08T12:11:24;97561.60;;;24.78
68027;BMP180;54819;48.030;14.710;2023-08-08T12:13:58;97557.00;;;24.80
68027;BMP180;54819;48.030;14.710;2023-08-08T12:16:30;97553.20;;;25.00
68027;BMP180;54819;48.030;14.710;2023-08-08T12:19:02;97554.60;;;25.00
68027;BMP180;54819;48.030;14.710;2023-08-08T12:21:29;97550.40;;;25.10
68027;BMP180;54819;48.030;14.710;2023-08-08T12:23:55;97551.00;;;25.10
68027;BMP180;54819;48.030;14.710;2023-08-08T12:26:22;97552.80;;;25.10
68027;BMP180;54819;48.030;14.710;2023-08-08T12:28:49;97546.60;;;25.10
68027;BMP180;54819;48.030;14.710;2023-08-08T12:31:17;97541.00;;;25.10
68027;BMP180;54819;48.030;14.710;2023-08-08T12:33:44;97541.40;;;25.10
68027;BMP180;54819;48.030;14.710;2023-08-08T12:36:13;97542.60;;;25.06
68027;BMP180;54819;48.030;14.710;2023-08-08T12:38:40;97539.20;;;25.02
68027;BMP180;54819;48.030;14.710;2023-08-08T12:41:07;97530.60;;;25.00
68027;BMP180;54819;48.030;14.710;2023-08-08T12:43:33;97533.60;;;25.00
68027;BMP180;54819;48.030;14.710;2023-08-08T12:46:00;97532.00;;;25.00
68027;BMP180;54819;48.030;14.710;2023-08-08T12:48:27;97531.00;;;25.04
68027;BMP180;54819;48.030;14.710;2023-08-08T12:50:54;97531.20;;;25.10
68027;BMP180;54819;48.030;14.710;2023-08-08T12:53:20;97528.20;;;25.10
68027;BMP180;54819;48.030;14.710;2023-08-08T12:55:47;97530.20;;;25.20
68027;BMP180;54819;48.030;14.710;2023-08-08T12:58:14;97518.80;;;25.20
68027;BMP180;54819;48.030;14.710;2023-08-08T13:00:40;97514.40;;;25.20
68027;BMP180;54819;48.030;14.710;2023-08-08T13:03:07;97514.20;;;25.20
68027;BMP180;54819;48.030;14.710;2023-08-08T13:05:34;97512.40;;;25.20
68027;BMP180;54819;48.030;14.710;2023-08-08T13:08:01;97513.00;;;25.20
68027;BMP180;54819;48.030;14.710;2023-08-08T13:10:27;97511.20;;;25.20
68027;BMP180;54819;48.030;14.710;2023-08-08T13:12:55;97504.20;;;25.20
68027;BMP180;54819;48.030;14.710;2023-08-08T13:15:22;97512.20;;;25.20
68027;BMP180;54819;48.030;14.710;2023-08-08T13:17:48;97516.80;;;25.20
68027;BMP180;54819;48.030;14.710;2023-08-08T13:20:15;97512.20;;;25.10
68027;BMP180;54819;48.030;14.710;2023-08-08T13:22:42;97508.20;;;25.00
68027;BMP180;54819;48.030;14.710;2023-08-08T13:25:09;97505.40;;;25.00
68027;BMP180;54819;48.030;14.710;2023-08-08T13:27:36;97496.60;;;24.96
68027;BMP180;54819;48.030;14.710;2023-08-08T13:30:05;97495.60;;;24.90
68027;BMP180;54819;48.030;14.710;2023-08-08T13:32:31;97495.00;;;24.84
68027;BMP180;54819;48.030;14.710;2023-08-08T13:34:58;97499.20;;;24.80
68027;BMP180;54819;48.030;14.710;2023-08-08T13:37:25;97498.40;;;24.80
68027;BMP180;54819;48.030;14.710;2023-08-08T13:39:52;97493.20;;;24.90
68027;BMP180;54819;48.030;14.710;2023-08-08T13:42:18;97493.20;;;24.90
68027;BMP180;54819;48.030;14.710;2023-08-08T13:44:45;97487.00;;;24.92
68027;BMP180;54819;48.030;14.710;2023-08-08T13:47:12;97486.40;;;25.00
68027;BMP180;54819;48.030;14.710;2023-08-08T13:49:38;97491.40;;;25.02
68027;BMP180;54819;48.030;14.710;2023-08-08T13:52:05;97490.00;;;25.10
68027;BMP180;54819;48.030;14.710;2023-08-08T13:54:32;97485.00;;;25.20
68027;BMP180;54819;48.030;14.710;2023-08-08T13:56:58;97483.40;;;25.30
68027;BMP180;54819;48.030;14.710;2023-08-08T13:59:25;97485.20;;;25.40
68027;BMP180;54819;48.030;14.710;2023-08-08T14:01:53;97491.00;;;25.50
68027;BMP180;54819;48.030;14.710;2023-08-08T14:04:20;97487.80;;;25.50